Time;durP1;ratioP1;P1;durP2;ratioP2;P2;SDS_P1;SDS_P2;PMS_P1;PMS_P2;Temp;Humidity;BMP_temperature;BMP_pressure;BME280_temperature;BME280_humidity;BME280_pressure;Samples;Min_cycle;Max_cycle;Signal;HPM_P1;HPM_P2
2022/11/18 00:00:18;;;;;;;;;;;;;;;13.52;76.74;99279.69;5081226;28;19920;-83
2022/11/18 00:03:02;;;;;;;;;;;;;;;13.52;76.39;99284.38;5081882;28;19916;-82
2022/11/18 00:05:54;;;;;;;;;;;;;;;13.50;76.17;99282.03;5067694;28;19916;-83
2022/11/18 00:08:38;;;;;;;;;;;;;;;13.52;75.61;99274.22;5071203;28;19917;-83
2022/11/18 00:14:27;;;;;;;;;;;;;;;13.48;76.06;99267.94;5065671;28;20471;-81
2022/11/18 00:17:11;;;;;;;;;;;;;;;13.50;75.92;99275.78;5079158;28;19921;-82
2022/11/18 00:19:56;;;;;;;;;;;;;;;13.45;76.59;99278.81;5067675;28;19924;-83
2022/11/18 00:22:40;;;;;;;;;;;;;;;13.53;76.19;99281.28;5068204;28;19917;-82
2022/11/18 00:25:25;;;;;;;;;;;;;;;13.58;75.72;99278.22;5072122;28;19916;-82
2022/11/18 00:28:10;;;;;;;;;;;;;;;13.55;75.99;99278.97;5081117;28;19917;-83
2022/11/18 00:30:59;;;;;;;;;;;;;;;13.61;75.84;99273.97;5082587;28;19916;-82
2022/11/18 00:33:44;;;;;;;;;;;;;;;13.49;75.94;99269.53;5068757;28;19919;-82
2022/11/18 00:36:28;;;;;;;;;;;;;;;13.44;76.16;99269.84;5064352;28;20397;-82
2022/11/18 00:39:13;;;;;;;;;;;;;;;13.28;77.43;99266.50;5076290;28;19917;-82
2022/11/18 00:45:01;;;;;;;;;;;;;;;13.47;77.30;99260.91;5074085;28;19917;-81
2022/11/18 00:47:46;;;;;;;;;;;;;;;13.50;77.43;99270.31;5082482;28;19920;-81
2022/11/18 00:50:32;;;;;;;;;;;;;;;13.50;76.83;99271.09;5079909;28;19916;-82
2022/11/18 00:53:17;;;;;;;;;;;;;;;13.37;77.73;99264.28;5068774;28;19920;-83
2022/11/18 00:56:02;;;;;;;;;;;;;;;13.38;77.50;99251.41;5066730;28;20304;-82
2022/11/18 00:58:46;;;;;;;;;;;;;;;13.35;78.16;99246.69;5065941;28;19921;-82
2022/11/18 01:01:31;;;;;;;;;;;;;;;13.50;77.67;99246.53;5080957;28;19921;-82
2022/11/18 01:04:15;;;;;;;;;;;;;;;13.56;76.98;99258.66;5080770;28;19932;-84
2022/11/18 01:07:00;;;;;;;;;;;;;;;13.51;77.13;99248.06;5045965;28;19917;-82
2022/11/18 01:09:44;;;;;;;;;;;;;;;13.42;77.38;99247.56;5060715;28;19917;-84
2022/11/18 01:15:38;;;;;;;;;;;;;;;13.53;76.62;99243.03;5059818;28;19920;-83
2022/11/18 01:18:25;;;;;;;;;;;;;;;13.57;75.49;99254.78;5079812;28;19921;-82
2022/11/18 01:21:09;;;;;;;;;;;;;;;13.56;75.32;99252.44;5080247;28;19921;-83
2022/11/18 01:23:54;;;;;;;;;;;;;;;13.52;75.66;99251.59;5064885;28;20301;-82
2022/11/18 01:26:38;;;;;;;;;;;;;;;13.47;75.71;99249.97;5076604;28;19926;-82
2022/11/18 01:29:23;;;;;;;;;;;;;;;13.44;75.83;99245.25;5080262;28;20388;-83
2022/11/18 01:32:07;;;;;;;;;;;;;;;13.37;76.06;99245.16;5064531;28;20324;-82
2022/11/18 01:34:51;;;;;;;;;;;;;;;13.46;76.46;99242.94;5068125;28;19916;-83
2022/11/18 01:37:36;;;;;;;;;;;;;;;13.43;76.04;99243.69;5079242;28;19920;-82
2022/11/18 01:40:21;;;;;;;;;;;;;;;13.48;75.84;99224.25;5079833;28;19921;-83
2022/11/18 01:43:14;;;;;;;;;;;;;;;13.47;75.89;99217.19;5070036;28;19920;-83
2022/11/18 01:45:59;;;;;;;;;;;;;;;13.47;75.59;99217.19;5080252;28;19917;-82
2022/11/18 01:48:45;;;;;;;;;;;;;;;13.41;76.08;99207.75;5080190;28;20319;-83
2022/11/18 01:51:32;;;;;;;;;;;;;;;13.37;75.18;99196.00;5079448;28;19917;-83
2022/11/18 01:54:27;;;;;;;;;;;;;;;13.41;75.03;99187.88;5066757;28;19917;-83
2022/11/18 01:57:16;;;;;;;;;;;;;;;13.41;74.85;99183.19;5079663;28;19921;-83
2022/11/18 02:00:02;;;;;;;;;;;;;;;13.47;74.96;99173.50;5079705;28;19916;-83
2022/11/18 02:02:49;;;;;;;;;;;;;;;13.45;74.45;99170.38;5085791;28;19917;-82
2022/11/18 02:05:34;;;;;;;;;;;;;;;13.41;74.29;99153.16;5070495;28;19916;-82
2022/11/18 02:08:19;;;;;;;;;;;;;;;13.41;74.22;99147.69;5073012;28;19916;-82
2022/11/18 02:11:07;;;;;;;;;;;;;;;13.42;74.07;99130.16;5104231;28;19916;-83
2022/11/18 02:13:52;;;;;;;;;;;;;;;13.40;73.91;99129.75;5102556;28;19916;-82
2022/11/18 02:16:44;;;;;;;;;;;;;;;13.39;73.65;99122.72;5101129;28;19924;-82
2022/11/18 02:19:46;;;;;;;;;;;;;;;13.42;74.02;99111.03;5069561;28;19916;-82
2022/11/18 02:22:50;;;;;;;;;;;;;;;13.45;73.89;99095.88;5062962;28;19929;-83
2022/11/18 02:25:53;;;;;;;;;;;;;;;13.41;74.26;99078.66;5079152;28;19917;-83
2022/11/18 02:28:57;;;;;;;;;;;;;;;13.34;74.33;99079.38;5074475;28;20308;-83
2022/11/18 02:31:54;;;;;;;;;;;;;;;13.34;74.31;99076.63;5086629;28;19916;-83
2022/11/18 02:34:47;;;;;;;;;;;;;;;13.32;74.15;99078.94;5067967;28;19916;-82
2022/11/18 02:37:42;;;;;;;;;;;;;;;13.31;73.73;99085.56;5085622;28;19921;-82
2022/11/18 02:40:36;;;;;;;;;;;;;;;13.26;73.75;99069.50;5069890;28;19924;-82
2022/11/18 02:43:24;;;;;;;;;;;;;;;13.22;74.26;99065.97;5083106;28;19916;-84
2022/11/18 02:46:11;;;;;;;;;;;;;;;13.26;73.99;99069.50;5083389;28;19917;-82
2022/11/18 02:48:56;;;;;;;;;;;;;;;13.27;74.14;99068.34;5062937;28;19917;-82
2022/11/18 02:51:40;;;;;;;;;;;;;;;13.19;74.72;99059.31;5062991;28;19925;-83
2022/11/18 02:54:26;;;;;;;;;;;;;;;13.19;75.11;99064.00;5063454;28;20385;-83
2022/11/18 02:57:12;;;;;;;;;;;;;;;13.25;75.29;99070.69;5067400;28;19916;-83
2022/11/18 02:59:57;;;;;;;;;;;;;;;13.32;75.48;99078.94;5072524;28;20391;-82
2022/11/18 03:02:46;;;;;;;;;;;;;;;13.31;76.17;99077.38;5070583;28;19917;-83
2022/11/18 03:05:35;;;;;;;;;;;;;;;13.30;76.41;99081.28;5068853;28;20289;-83
2022/11/18 03:08:24;;;;;;;;;;;;;;;13.31;76.60;99091.00;5071567;28;19917;-82
2022/11/18 03:11:13;;;;;;;;;;;;;;;13.35;76.78;99097.31;5070672;28;19916;-82
2022/11/18 03:14:17;;;;;;;;;;;;;;;13.31;77.23;99115.59;5081243;28;20380;-82
2022/11/18 03:17:09;;;;;;;;;;;;;;;13.31;77.38;99131.97;5082557;28;19916;-83
2022/11/18 03:20:03;;;;;;;;;;;;;;;13.26;77.66;99137.75;5063300;28;19916;-83
2022/11/18 03:22:48;;;;;;;;;;;;;;;13.26;77.99;99132.28;5078781;28;19921;-83
2022/11/18 03:25:36;;;;;;;;;;;;;;;13.23;78.01;99119.41;5062503;28;19916;-82
2022/11/18 03:28:35;;;;;;;;;;;;;;;13.24;77.90;99099.94;5065400;28;19924;-83
2022/11/18 03:31:35;;;;;;;;;;;;;;;13.25;77.86;99096.06;5066557;28;19920;-82
2022/11/18 03:34:24;;;;;;;;;;;;;;;13.27;77.82;99082.00;5061776;28;19917;-83
2022/11/18 03:37:11;;;;;;;;;;;;;;;13.22;78.19;99068.69;5061564;28;19942;-83
2022/11/18 03:40:03;;;;;;;;;;;;;;;13.18;77.98;99035.91;5072962;28;19916;-83
2022/11/18 03:42:51;;;;;;;;;;;;;;;13.21;78.24;99020.72;5072910;28;19921;-84
2022/11/18 03:45:40;;;;;;;;;;;;;;;13.18;78.10;99030.44;5082358;28;19920;-83
2022/11/18 03:48:28;;;;;;;;;;;;;;;13.21;77.90;99034.34;5069510;28;20293;-82
2022/11/18 03:51:16;;;;;;;;;;;;;;;13.22;77.91;99030.47;5068088;28;19916;-81
2022/11/18 03:54:11;;;;;;;;;;;;;;;13.18;77.91;99033.19;5081810;28;19916;-83
2022/11/18 03:57:01;;;;;;;;;;;;;;;13.16;77.88;99040.16;5080742;28;19917;-82
2022/11/18 03:59:53;;;;;;;;;;;;;;;13.14;77.86;99031.56;5072547;28;19916;-82
2022/11/18 04:02:38;;;;;;;;;;;;;;;13.14;78.19;99054.19;5067446;28;20308;-83
2022/11/18 04:05:23;;;;;;;;;;;;;;;13.21;77.66;99059.72;5063459;28;19917;-83
2022/11/18 04:08:10;;;;;;;;;;;;;;;13.23;77.51;99071.06;5060329;28;19917;-83
2022/11/18 04:11:00;;;;;;;;;;;;;;;13.24;77.60;99066.38;5073294;28;19916;-82
2022/11/18 04:13:44;;;;;;;;;;;;;;;13.21;77.81;99065.16;5060758;28;20385;-82
2022/11/18 04:16:29;;;;;;;;;;;;;;;13.19;77.99;99072.19;5079514;28;19916;-87
2022/11/18 04:19:13;;;;;;;;;;;;;;;13.14;78.29;99067.06;5072721;28;19917;-87
2022/11/18 04:21:58;;;;;;;;;;;;;;;13.08;78.41;99071.22;5084693;28;19921;-87
2022/11/18 04:24:42;;;;;;;;;;;;;;;13.09;78.78;99076.31;5067872;28;19935;-88
2022/11/18 04:27:27;;;;;;;;;;;;;;;13.08;78.51;99073.97;5085235;28;19920;-88
2022/11/18 04:30:11;;;;;;;;;;;;;;;13.10;78.37;99074.38;5079103;28;19917;-86
2022/11/18 04:32:57;;;;;;;;;;;;;;;13.11;78.44;99070.47;5070684;28;19917;-87
2022/11/18 04:35:41;;;;;;;;;;;;;;;13.08;78.56;99055.66;5065903;28;19916;-86
2022/11/18 04:38:26;;;;;;;;;;;;;;;13.13;78.82;99054.56;5070907;28;19916;-86
2022/11/18 04:41:10;;;;;;;;;;;;;;;13.14;78.79;99046.00;5062827;28;19920;-86
2022/11/18 04:43:55;;;;;;;;;;;;;;;13.16;78.40;99045.59;5064310;28;19916;-86
2022/11/18 04:46:40;;;;;;;;;;;;;;;13.14;78.51;99042.47;5064622;28;19916;-88
2022/11/18 04:49:25;;;;;;;;;;;;;;;13.15;78.60;99046.78;5055411;28;19916;-87
2022/11/18 04:52:11;;;;;;;;;;;;;;;13.16;78.51;99040.16;5063710;28;19916;-88
2022/11/18 04:54:55;;;;;;;;;;;;;;;13.23;78.30;99037.50;5070143;28;20393;-87
2022/11/18 04:57:40;;;;;;;;;;;;;;;13.24;78.54;99042.59;5070431;28;19966;-87
2022/11/18 05:00:24;;;;;;;;;;;;;;;13.25;78.38;99040.66;5069356;28;19916;-87
2022/11/18 05:03:09;;;;;;;;;;;;;;;13.24;78.41;99041.81;5067933;28;19916;-86
2022/11/18 05:05:53;;;;;;;;;;;;;;;13.30;78.58;99048.50;5063379;22;20401;-77
2022/11/18 05:08:38;;;;;;;;;;;;;;;13.22;78.37;99044.13;5046723;28;19921;-77
2022/11/18 05:14:26;;;;;;;;;;;;;;;13.24;78.42;99039.09;5047176;28;19920;-76
2022/11/18 05:17:11;;;;;;;;;;;;;;;13.24;78.47;99034.41;5041314;28;19917;-78
2022/11/18 05:19:56;;;;;;;;;;;;;;;13.23;78.73;99034.78;5051924;28;19921;-76
2022/11/18 05:22:40;;;;;;;;;;;;;;;13.27;78.52;99035.59;5032573;28;20389;-78
2022/11/18 05:25:25;;;;;;;;;;;;;;;13.30;78.39;99029.41;5026201;28;19916;-78
2022/11/18 05:28:09;;;;;;;;;;;;;;;13.22;78.86;99019.56;5033345;28;19917;-77
2022/11/18 05:30:53;;;;;;;;;;;;;;;13.20;79.04;99017.22;5036527;28;19917;-78
2022/11/18 05:33:38;;;;;;;;;;;;;;;13.18;79.14;99007.81;5033484;28;19917;-75
2022/11/18 05:36:23;;;;;;;;;;;;;;;13.11;79.57;99013.97;5033354;28;20393;-78
2022/11/18 05:39:08;;;;;;;;;;;;;;;13.03;80.07;99012.31;5033964;28;20385;-78
2022/11/18 05:44:56;;;;;;;;;;;;;;;12.94;80.71;99027.41;5033128;28;19917;-77
2022/11/18 05:47:59;;;;;;;;;;;;;;;12.90;81.06;99018.41;5033291;28;19921;-78
2022/11/18 05:50:48;;;;;;;;;;;;;;;12.89;81.07;99022.28;5034066;28;19917;-76
2022/11/18 05:53:33;;;;;;;;;;;;;;;12.85;81.19;99030.41;5026055;28;19917;-78
2022/11/18 05:56:17;;;;;;;;;;;;;;;12.81;81.43;99030.38;5032791;28;19917;-78
2022/11/18 05:59:02;;;;;;;;;;;;;;;13.36;83.30;99038.81;5047033;28;19917;-79
2022/11/18 06:02:00;;;;;;;;;;;;;;;14.39;79.21;99056.88;5033896;28;20313;-78
2022/11/18 06:04:47;;;;;;;;;;;;;;;15.29;75.53;99050.66;5033526;28;20375;-79
2022/11/18 06:07:36;;;;;;;;;;;;;;;15.57;73.41;99056.25;5032289;28;19917;-79
2022/11/18 06:10:23;;;;;;;;;;;;;;;15.87;71.40;99053.13;5033335;28;19924;-78
2022/11/18 06:13:10;;;;;;;;;;;;;;;16.03;70.15;99060.97;5035006;28;19917;-79
2022/11/18 06:15:55;;;;;;;;;;;;;;;16.10;69.76;99059.00;5033265;28;19917;-78
2022/11/18 06:18:40;;;;;;;;;;;;;;;15.97;69.00;99063.31;5033820;28;19918;-79
2022/11/18 06:21:24;;;;;;;;;;;;;;;15.89;68.18;99061.75;5033500;28;20314;-79
2022/11/18 06:24:09;;;;;;;;;;;;;;;15.56;68.77;99059.34;5014761;28;19917;-79
2022/11/18 06:26:54;;;;;;;;;;;;;;;15.51;71.38;99056.97;5023350;28;19917;-79
2022/11/18 06:29:38;;;;;;;;;;;;;;;15.86;70.20;99059.78;5034755;28;19917;-78
2022/11/18 06:32:23;;;;;;;;;;;;;;;15.94;70.19;99066.84;5032983;28;19917;-77
2022/11/18 06:35:07;;;;;;;;;;;;;;;16.18;69.53;99068.03;5037198;28;19917;-79
2022/11/18 06:37:51;;;;;;;;;;;;;;;16.00;68.68;99072.75;5033002;28;19917;-77
2022/11/18 06:40:36;;;;;;;;;;;;;;;15.82;67.80;99078.19;5033077;28;19921;-79
2022/11/18 06:49:27;;;;;;;;;;;;;;;14.45;72.96;99082.72;5037200;28;19917;-79
2022/11/18 06:52:12;;;;;;;;;;;;;;;14.38;73.35;99077.19;5036333;28;19936;-79
2022/11/18 06:54:56;;;;;;;;;;;;;;;14.38;75.29;99084.59;5037602;28;19917;-78
2022/11/18 06:57:41;;;;;;;;;;;;;;;14.40;73.96;99074.88;5041556;28;19925;-76
2022/11/18 07:00:25;;;;;;;;;;;;;;;14.39;75.03;99070.56;5036913;28;19917;-79
2022/11/18 07:03:09;;;;;;;;;;;;;;;14.31;75.00;99073.59;5037693;28;19921;-78
2022/11/18 07:05:54;;;;;;;;;;;;;;;14.19;75.46;99087.56;5036341;28;19917;-75
2022/11/18 07:08:40;;;;;;;;;;;;;;;14.30;74.26;99086.50;5036843;28;19917;-79
2022/11/18 07:11:25;;;;;;;;;;;;;;;14.73;72.77;99092.28;5036264;28;19933;-78
2022/11/18 07:14:09;;;;;;;;;;;;;;;14.66;73.09;99103.16;5036524;28;19917;-75
2022/11/18 07:16:54;;;;;;;;;;;;;;;14.71;73.38;99113.75;5036596;28;19917;-77
2022/11/18 07:19:39;;;;;;;;;;;;;;;15.33;72.99;99115.25;5036383;28;19917;-77
2022/11/18 07:22:23;;;;;;;;;;;;;;;15.74;71.29;99121.25;5035679;28;19921;-79
2022/11/18 07:25:08;;;;;;;;;;;;;;;15.99;70.15;99126.78;5040200;28;19918;-77
2022/11/18 07:27:53;;;;;;;;;;;;;;;16.16;69.13;99131.47;5036134;28;19917;-75
2022/11/18 07:30:37;;;;;;;;;;;;;;;16.14;68.56;99133.84;5036169;28;19917;-77
2022/11/18 07:33:21;;;;;;;;;;;;;;;16.33;68.24;99131.88;5035577;28;19917;-76
2022/11/18 07:36:10;;;;;;;;;;;;;;;16.45;67.58;99134.25;5038043;28;19921;-79
2022/11/18 07:38:57;;;;;;;;;;;;;;;16.52;67.27;99142.47;5035885;28;20370;-77
2022/11/18 07:41:42;;;;;;;;;;;;;;;16.52;66.60;99139.72;5039650;28;19921;-79
2022/11/18 07:44:26;;;;;;;;;;;;;;;16.58;66.31;99151.88;5035820;28;19921;-77
2022/11/18 07:47:10;;;;;;;;;;;;;;;16.50;66.52;99153.06;5034743;28;19917;-77
2022/11/18 07:49:55;;;;;;;;;;;;;;;16.09;65.83;99150.69;5039605;28;19917;-77
2022/11/18 07:52:39;;;;;;;;;;;;;;;15.93;68.73;99149.47;5035205;28;19917;-77
2022/11/18 07:55:24;;;;;;;;;;;;;;;16.16;68.09;99161.66;5029171;28;19917;-77
2022/11/18 07:58:08;;;;;;;;;;;;;;;16.21;67.13;99166.75;5029061;28;20390;-78
2022/11/18 08:00:52;;;;;;;;;;;;;;;16.26;67.24;99174.59;5033207;28;20293;-78
2022/11/18 08:03:37;;;;;;;;;;;;;;;16.40;67.16;99173.84;5030524;28;19917;-78
2022/11/18 08:06:21;;;;;;;;;;;;;;;16.51;66.91;99171.84;5033630;28;19917;-77
2022/11/18 08:09:07;;;;;;;;;;;;;;;16.29;65.58;99169.50;5032465;28;19921;-76
2022/11/18 08:11:51;;;;;;;;;;;;;;;16.22;66.71;99162.84;5034209;28;19917;-77
2022/11/18 08:14:35;;;;;;;;;;;;;;;16.14;67.36;99166.75;5029609;28;19917;-76
2022/11/18 08:17:20;;;;;;;;;;;;;;;16.23;67.29;99164.41;5033949;28;19917;-77
2022/11/18 08:20:04;;;;;;;;;;;;;;;16.29;66.99;99167.56;5035051;28;19917;-77
2022/11/18 08:22:49;;;;;;;;;;;;;;;16.44;66.59;99163.66;5034977;28;19921;-77
2022/11/18 08:25:34;;;;;;;;;;;;;;;16.53;66.34;99160.50;5033496;28;19917;-77
2022/11/18 08:28:19;;;;;;;;;;;;;;;16.53;65.89;99168.72;5036725;28;19925;-77
2022/11/18 08:31:11;;;;;;;;;;;;;;;16.49;65.17;99159.72;5033477;28;19917;-78
2022/11/18 08:33:56;;;;;;;;;;;;;;;16.49;65.53;99176.19;5029415;28;20309;-80
2022/11/18 08:36:40;;;;;;;;;;;;;;;16.55;65.88;99166.38;5033221;28;19924;-75
2022/11/18 08:39:25;;;;;;;;;;;;;;;16.62;65.64;99177.38;5044301;28;19917;-76
2022/11/18 08:42:09;;;;;;;;;;;;;;;16.65;65.68;99160.13;5031605;28;20325;-80
2022/11/18 08:44:54;;;;;;;;;;;;;;;16.66;65.90;99156.97;5031462;28;19925;-79
2022/11/18 08:47:39;;;;;;;;;;;;;;;16.67;65.98;99155.81;5039832;28;19917;-79
2022/11/18 08:50:24;;;;;;;;;;;;;;;16.65;65.90;99143.66;5030732;28;19917;-80
2022/11/18 08:53:08;;;;;;;;;;;;;;;16.69;66.21;99152.66;5048455;28;20290;-80
2022/11/18 08:55:57;;;;;;;;;;;;;;;16.62;65.36;99152.66;5036282;28;19917;-80
2022/11/18 08:58:41;;;;;;;;;;;;;;;16.47;65.63;99156.56;5045008;28;19929;-81
2022/11/18 09:01:26;;;;;;;;;;;;;;;16.42;66.07;99155.00;5023561;28;19921;-80
2022/11/18 09:04:10;;;;;;;;;;;;;;;16.56;65.78;99152.25;5034863;28;19917;-80
2022/11/18 09:06:55;;;;;;;;;;;;;;;16.62;66.14;99164.44;5029211;28;19917;-80
2022/11/18 09:09:39;;;;;;;;;;;;;;;16.58;65.93;99162.84;5032245;28;19917;-80
2022/11/18 09:12:24;;;;;;;;;;;;;;;16.57;65.99;99156.56;5047718;28;19917;-80
2022/11/18 09:15:08;;;;;;;;;;;;;;;16.65;66.40;99162.88;5034897;28;19917;-80
2022/11/18 09:17:53;;;;;;;;;;;;;;;16.62;66.10;99160.91;5028926;28;19944;-80
2022/11/18 09:20:37;;;;;;;;;;;;;;;16.64;66.31;99150.31;5035717;28;19917;-80
2022/11/18 09:23:22;;;;;;;;;;;;;;;16.72;66.51;99167.56;5028418;28;20301;-78
2022/11/18 09:26:11;;;;;;;;;;;;;;;16.71;66.35;99166.78;5029800;28;19917;-79
2022/11/18 09:28:55;;;;;;;;;;;;;;;16.77;66.20;99162.47;5026972;28;20100;-79
2022/11/18 09:31:40;;;;;;;;;;;;;;;16.77;65.93;99162.47;5028394;28;19917;-79
2022/11/18 09:34:24;;;;;;;;;;;;;;;16.75;65.56;99170.31;5028480;28;19917;-79
2022/11/18 09:37:08;;;;;;;;;;;;;;;16.69;65.54;99169.16;5028287;28;19917;-78
2022/11/18 09:39:53;;;;;;;;;;;;;;;16.66;65.24;99169.91;5029952;28;20301;-78
2022/11/18 09:42:49;;;;;;;;;;;;;;;16.67;65.50;99168.75;5032828;28;19925;-79
2022/11/18 09:45:37;;;;;;;;;;;;;;;16.65;65.35;99169.16;5031358;28;19917;-77
2022/11/18 09:49:11;;;;;;;;;;;;;;;16.70;65.47;99176.22;5039821;28;19918;-79
2022/11/18 09:51:31;;;;;;;;;;;;;;;16.71;65.23;99166.00;5031824;28;19917;-77
2022/11/18 09:54:16;;;;;;;;;;;;;;;16.68;65.78;99168.34;5037453;28;19917;-75
2022/11/18 09:57:00;;;;;;;;;;;;;;;16.70;65.90;99164.44;5043761;28;19916;-79
2022/11/18 09:59:45;;;;;;;;;;;;;;;16.68;66.63;99162.09;5040565;28;20374;-77
2022/11/18 10:02:41;;;;;;;;;;;;;;;16.70;66.65;99164.44;5036124;28;19921;-77
2022/11/18 10:05:27;;;;;;;;;;;;;;;16.74;66.52;99167.97;5038864;28;19916;-79
2022/11/18 10:08:28;;;;;;;;;;;;;;;16.72;66.32;99165.59;5036058;28;19917;-78
2022/11/18 10:11:18;;;;;;;;;;;;;;;16.67;65.65;99160.50;5053454;28;19917;-77
2022/11/18 10:14:22;;;;;;;;;;;;;;;16.55;65.45;99158.94;5042817;28;19916;-79
2022/11/18 10:17:07;;;;;;;;;;;;;;;16.60;65.53;99172.28;5032074;28;19921;-78
2022/11/18 10:19:52;;;;;;;;;;;;;;;16.50;65.35;99159.34;5044631;28;19917;-78
2022/11/18 10:22:43;;;;;;;;;;;;;;;16.62;65.70;99160.91;5028403;28;19925;-77
2022/11/18 10:25:27;;;;;;;;;;;;;;;16.67;65.84;99160.50;5030107;28;19921;-77
2022/11/18 10:28:16;;;;;;;;;;;;;;;16.73;65.69;99163.66;5035169;28;19917;-76
2022/11/18 10:31:05;;;;;;;;;;;;;;;16.78;65.32;99153.03;5040330;28;19917;-78
2022/11/18 10:33:57;;;;;;;;;;;;;;;16.71;65.01;99155.78;5041430;28;20309;-78
2022/11/18 10:36:42;;;;;;;;;;;;;;;16.73;65.48;99153.44;5037297;28;20309;-78
2022/11/18 10:39:27;;;;;;;;;;;;;;;16.71;65.95;99160.53;5029614;28;20345;-78
2022/11/18 10:42:18;;;;;;;;;;;;;;;16.69;65.65;99158.16;5035380;28;19921;-77
2022/11/18 10:45:21;;;;;;;;;;;;;;;16.71;65.05;99155.78;5044298;28;19918;-78
2022/11/18 10:48:14;;;;;;;;;;;;;;;16.73;66.06;99160.91;5041143;28;19913;-77
2022/11/18 10:51:18;;;;;;;;;;;;;;;16.73;66.54;99156.19;5036236;28;19917;-78
2022/11/18 10:54:06;;;;;;;;;;;;;;;16.72;66.28;99171.09;5039096;28;19917;-77
2022/11/18 10:56:53;;;;;;;;;;;;;;;16.66;66.04;99165.22;5035409;28;20382;-77
2022/11/18 10:59:45;;;;;;;;;;;;;;;16.61;65.48;99153.84;5030992;28;19917;-76
2022/11/18 11:02:34;;;;;;;;;;;;;;;16.55;65.17;99147.19;5042466;28;20453;-77
2022/11/18 11:05:22;;;;;;;;;;;;;;;16.60;65.10;99147.59;5035911;28;19929;-78
2022/11/18 11:08:18;;;;;;;;;;;;;;;16.63;64.82;99143.25;5042436;28;19921;-78
2022/11/18 11:11:03;;;;;;;;;;;;;;;16.65;65.08;99147.19;5038908;28;19917;-78
2022/11/18 11:13:47;;;;;;;;;;;;;;;16.67;64.93;99144.81;5033204;28;19922;-76
2022/11/18 11:16:35;;;;;;;;;;;;;;;16.64;64.95;99144.84;5042973;28;19916;-78
2022/11/18 11:19:21;;;;;;;;;;;;;;;16.68;64.92;99151.88;5036481;28;19929;-78
2022/11/18 11:22:10;;;;;;;;;;;;;;;16.73;64.68;99158.16;5044398;28;19925;-78
2022/11/18 11:24:55;;;;;;;;;;;;;;;16.77;64.20;99159.72;5036691;28;19917;-78
2022/11/18 11:27:40;;;;;;;;;;;;;;;16.80;64.03;99164.44;5039497;28;19917;-78
2022/11/18 11:30:24;;;;;;;;;;;;;;;16.82;64.15;99166.75;5042638;28;19925;-80
2022/11/18 11:33:24;;;;;;;;;;;;;;;16.84;64.12;99161.66;5031698;28;19918;-80
2022/11/18 11:36:19;;;;;;;;;;;;;;;16.88;63.99;99165.19;5032022;28;19917;-80
2022/11/18 11:39:19;;;;;;;;;;;;;;;16.89;64.19;99162.06;5031559;28;19917;-80
2022/11/18 11:42:13;;;;;;;;;;;;;;;16.86;64.17;99154.63;5037389;28;19921;-80
2022/11/18 11:45:00;;;;;;;;;;;;;;;16.87;63.82;99153.41;5034943;28;19921;-79
2022/11/18 11:47:55;;;;;;;;;;;;;;;16.85;63.93;99155.78;5026571;28;19921;-80
2022/11/18 11:50:52;;;;;;;;;;;;;;;16.85;64.27;99161.28;5041595;28;19921;-80
2022/11/18 11:53:43;;;;;;;;;;;;;;;16.86;64.82;99156.56;5032283;28;20398;-78
2022/11/18 11:56:27;;;;;;;;;;;;;;;16.86;64.87;99156.56;5036030;28;19921;-80
2022/11/18 11:59:17;;;;;;;;;;;;;;;16.87;64.48;99158.91;5032985;28;19917;-78
2022/11/18 12:02:21;;;;;;;;;;;;;;;16.87;64.20;99158.91;5034627;28;20324;-77
2022/11/18 12:05:09;;;;;;;;;;;;;;;16.88;63.87;99155.00;5036640;28;19925;-80
2022/11/18 12:07:56;;;;;;;;;;;;;;;16.89;63.93;99150.28;5034958;28;19918;-80
2022/11/18 12:10:49;;;;;;;;;;;;;;;16.89;63.45;99145.59;5034457;28;19925;-79
2022/11/18 12:13:34;;;;;;;;;;;;;;;16.91;64.11;99154.22;5031257;28;20390;-77
2022/11/18 12:16:37;;;;;;;;;;;;;;;16.98;63.97;99147.91;5034225;28;20305;-79
2022/11/18 12:19:22;;;;;;;;;;;;;;;17.28;63.71;99152.91;5034666;28;19917;-78
2022/11/18 12:22:06;;;;;;;;;;;;;;;17.50;63.20;99159.91;5047803;28;19936;-80
2022/11/18 12:24:50;;;;;;;;;;;;;;;17.90;62.23;99155.78;5032481;28;19921;-79
2022/11/18 12:27:35;;;;;;;;;;;;;;;18.12;60.70;99170.19;5031276;28;20302;-80
2022/11/18 12:30:19;;;;;;;;;;;;;;;18.32;60.11;99165.72;5032865;28;19917;-76
2022/11/18 12:33:12;;;;;;;;;;;;;;;18.61;58.77;99163.53;5034763;28;19917;-77
2022/11/18 12:35:57;;;;;;;;;;;;;;;18.59;57.53;99166.69;5031332;28;19921;-78
2022/11/18 12:38:41;;;;;;;;;;;;;;;18.61;58.29;99175.34;5031860;28;19917;-80
2022/11/18 12:44:43;;;;;;;;;;;;;;;18.66;57.87;99166.66;5031689;28;19921;-80
2022/11/18 12:47:53;;;;;;;;;;;;;;;18.67;58.04;99162.72;5032602;28;19921;-80
2022/11/18 12:50:49;;;;;;;;;;;;;;;18.62;57.74;99160.41;5031402;28;19921;-78
2022/11/18 12:53:38;;;;;;;;;;;;;;;18.70;57.40;99152.84;5033357;28;20378;-77
2022/11/18 12:56:25;;;;;;;;;;;;;;;18.59;57.63;99152.94;5034972;28;19917;-79
2022/11/18 12:59:11;;;;;;;;;;;;;;;18.74;57.65;99153.63;5034067;28;19942;-79
2022/11/18 13:02:04;;;;;;;;;;;;;;;18.81;57.17;99139.75;5033472;28;19917;-76
2022/11/18 13:05:03;;;;;;;;;;;;;;;18.64;57.48;99151.75;5032924;28;19917;-77
2022/11/18 13:08:12;;;;;;;;;;;;;;;18.61;58.03;99152.53;5026418;28;19921;-76
2022/11/18 13:20:36;;;;;;;;;;;;;;;18.61;59.23;99172.59;5064746;28;20301;-78
2022/11/18 13:26:31;;;;;;;;;;;;;;;18.79;56.97;99169.69;5028632;28;19917;-78
2022/11/18 13:29:32;;;;;;;;;;;;;;;18.67;56.75;99168.22;5032866;28;19917;-76
2022/11/18 13:32:21;;;;;;;;;;;;;;;18.58;58.23;99175.38;5036099;28;19917;-77
2022/11/18 13:35:17;;;;;;;;;;;;;;;18.53;58.35;99164.78;5025053;28;19917;-79
2022/11/18 13:38:02;;;;;;;;;;;;;;;18.49;58.30;99167.53;5031530;28;19917;-76
2022/11/18 13:43:50;;;;;;;;;;;;;;;18.61;59.10;99180.06;5028528;28;19921;-78
2022/11/18 13:46:35;;;;;;;;;;;;;;;18.62;58.49;99182.44;5031871;28;19917;-77
2022/11/18 13:49:23;;;;;;;;;;;;;;;18.66;58.31;99183.16;5031889;28;19917;-76
2022/11/18 13:52:14;;;;;;;;;;;;;;;18.60;58.61;99184.00;5031682;28;19921;-77
2022/11/18 13:55:00;;;;;;;;;;;;;;;18.59;58.61;99172.22;5037841;28;19917;-76
2022/11/18 13:57:46;;;;;;;;;;;;;;;18.55;58.62;99182.47;5033836;28;20374;-77
2022/11/18 14:00:33;;;;;;;;;;;;;;;18.58;58.89;99181.69;5039556;28;19917;-77
2022/11/18 14:03:31;;;;;;;;;;;;;;;18.56;58.90;99183.25;5040773;28;19924;-78
2022/11/18 14:06:27;;;;;;;;;;;;;;;18.59;58.52;99188.72;5032002;28;19929;-79
2022/11/18 14:09:21;;;;;;;;;;;;;;;18.21;56.77;99189.78;5031083;28;19917;-77
2022/11/18 14:12:20;;;;;;;;;;;;;;;17.79;57.40;99186.09;5035793;28;20451;-77
2022/11/18 14:15:15;;;;;;;;;;;;;;;17.56;58.34;99190.50;5034091;28;21737;-78
2022/11/18 14:18:00;;;;;;;;;;;;;;;17.41;58.93;99192.53;5039303;28;19917;-78
2022/11/18 14:20:49;;;;;;;;;;;;;;;17.33;59.74;99196.47;5051710;28;19921;-81
2022/11/18 14:23:35;;;;;;;;;;;;;;;17.21;59.78;99199.66;5048978;28;19921;-82
2022/11/18 14:26:26;;;;;;;;;;;;;;;17.10;59.85;99199.69;5051491;28;19917;-79
2022/11/18 14:29:22;;;;;;;;;;;;;;;17.00;60.30;99204.00;5049796;28;19917;-79
2022/11/18 14:32:10;;;;;;;;;;;;;;;16.98;60.56;99202.81;5047251;28;20293;-80
2022/11/18 14:34:59;;;;;;;;;;;;;;;16.89;60.31;99205.19;5047142;28;19917;-78
2022/11/18 14:37:44;;;;;;;;;;;;;;;16.84;60.55;99198.16;5064656;28;20386;-80
2022/11/18 14:40:29;;;;;;;;;;;;;;;16.81;60.81;99203.66;5051225;28;19929;-80
2022/11/18 14:43:13;;;;;;;;;;;;;;;16.81;61.24;99207.16;5056612;28;19921;-81
2022/11/18 14:46:00;;;;;;;;;;;;;;;16.82;61.15;99214.22;5046385;28;19921;-81
2022/11/18 14:48:45;;;;;;;;;;;;;;;16.79;61.25;99211.47;5040795;28;19917;-81
2022/11/18 14:51:30;;;;;;;;;;;;;;;16.75;61.46;99207.97;5042706;28;19917;-81
2022/11/18 14:54:15;;;;;;;;;;;;;;;16.68;61.42;99208.75;5046474;28;19917;-82
2022/11/18 14:57:01;;;;;;;;;;;;;;;16.65;61.70;99207.59;5039855;28;20297;-79
2022/11/18 14:59:46;;;;;;;;;;;;;;;16.59;61.68;99209.16;5043142;28;19917;-80
2022/11/18 15:02:30;;;;;;;;;;;;;;;16.51;62.10;99213.03;5025236;28;19922;-80
2022/11/18 15:05:14;;;;;;;;;;;;;;;16.44;62.34;99215.78;5022784;28;19918;-80
2022/11/18 15:07:59;;;;;;;;;;;;;;;16.37;62.50;99220.47;5033056;28;19917;-79
2022/11/18 15:10:44;;;;;;;;;;;;;;;16.29;62.80;99219.69;5041913;28;19917;-80
2022/11/18 15:13:28;;;;;;;;;;;;;;;16.26;62.97;99223.19;5044574;28;20381;-80